sensor_id;sensor_type;location;lat;lon;timestamp;pressure;altitude;pressure_sealevel;temperature;humidity
27805;BME280;15183;51.350;11.102;2024-03-02T00:01:48;98981.75;;;10.48;58.22
27805;BME280;15183;51.350;11.102;2024-03-02T00:04:14;98913.34;;;10.00;58.57
27805;BME280;15183;51.350;11.102;2024-03-02T00:06:41;98977.03;;;10.33;58.45
27805;BME280;15183;51.350;11.102;2024-03-02T00:09:09;98967.03;;;10.18;58.21
27805;BME280;15183;51.350;11.102;2024-03-02T00:11:38;98960.47;;;10.03;58.15
27805;BME280;15183;51.350;11.102;2024-03-02T00:14:05;98953.78;;;9.95;58.87
27805;BME280;15183;51.350;11.102;2024-03-02T00:16:32;98969.78;;;10.06;59.02
27805;BME280;15183;51.350;11.102;2024-03-02T00:19:03;98954.41;;;10.03;59.36
27805;BME280;15183;51.350;11.102;2024-03-02T00:21:31;98951.53;;;10.04;58.76
27805;BME280;15183;51.350;11.102;2024-03-02T00:23:59;98953.75;;;10.12;59.02
27805;BME280;15183;51.350;11.102;2024-03-02T00:26:26;98957.19;;;10.13;58.95
27805;BME280;15183;51.350;11.102;2024-03-02T00:28:55;98939.00;;;9.99;58.83
27805;BME280;15183;51.350;11.102;2024-03-02T00:31:23;98947.41;;;10.13;58.64
27805;BME280;15183;51.350;11.102;2024-03-02T00:33:49;98947.84;;;10.05;58.76
27805;BME280;15183;51.350;11.102;2024-03-02T00:36:25;98958.84;;;10.19;58.82
27805;BME280;15183;51.350;11.102;2024-03-02T00:38:55;98959.09;;;10.18;59.10
27805;BME280;15183;51.350;11.102;2024-03-02T00:41:27;98957.72;;;10.15;58.89
27805;BME280;15183;51.350;11.102;2024-03-02T00:44:04;98958.78;;;10.14;58.72
27805;BME280;15183;51.350;11.102;2024-03-02T00:46:42;98952.63;;;10.08;58.74
27805;BME280;15183;51.350;11.102;2024-03-02T00:49:22;98949.91;;;10.03;58.90
27805;BME280;15183;51.350;11.102;2024-03-02T00:51:52;98955.03;;;10.10;58.68
27805;BME280;15183;51.350;11.102;2024-03-02T00:54:25;98939.31;;;10.03;58.96
27805;BME280;15183;51.350;11.102;2024-03-02T00:56:53;98942.28;;;10.07;58.87
27805;BME280;15183;51.350;11.102;2024-03-02T00:59:22;98942.84;;;10.09;58.81
27805;BME280;15183;51.350;11.102;2024-03-02T01:01:49;98947.63;;;10.12;58.52
27805;BME280;15183;51.350;11.102;2024-03-02T01:04:16;98947.16;;;10.15;58.78
27805;BME280;15183;51.350;11.102;2024-03-02T01:06:43;98947.47;;;10.19;58.59
27805;BME280;15183;51.350;11.102;2024-03-02T01:09:10;98954.03;;;10.16;58.55
27805;BME280;15183;51.350;11.102;2024-03-02T01:11:38;98959.03;;;10.12;58.69
27805;BME280;15183;51.350;11.102;2024-03-02T01:14:05;98911.16;;;9.75;58.85
27805;BME280;15183;51.350;11.102;2024-03-02T01:16:32;98913.31;;;9.78;58.63
27805;BME280;15183;51.350;11.102;2024-03-02T01:18:58;98933.41;;;9.96;58.77
27805;BME280;15183;51.350;11.102;2024-03-02T01:21:25;98945.75;;;10.07;58.90
27805;BME280;15183;51.350;11.102;2024-03-02T01:23:52;98956.47;;;10.18;58.85
27805;BME280;15183;51.350;11.102;2024-03-02T01:26:18;98945.53;;;10.14;58.74
27805;BME280;15183;51.350;11.102;2024-03-02T01:28:44;98915.97;;;10.00;58.92
27805;BME280;15183;51.350;11.102;2024-03-02T01:31:11;98941.91;;;10.20;58.81
27805;BME280;15183;51.350;11.102;2024-03-02T01:33:37;98923.69;;;10.02;58.66
27805;BME280;15183;51.350;11.102;2024-03-02T01:36:04;98949.19;;;10.30;58.72
27805;BME280;15183;51.350;11.102;2024-03-02T01:38:31;98962.59;;;10.40;58.57
27805;BME280;15183;51.350;11.102;2024-03-02T01:40:57;98952.22;;;10.39;58.61
27805;BME280;15183;51.350;11.102;2024-03-02T01:43:24;98962.34;;;10.42;58.53
27805;BME280;15183;51.350;11.102;2024-03-02T01:45:52;98952.31;;;10.44;58.44
27805;BME280;15183;51.350;11.102;2024-03-02T01:48:19;98972.50;;;10.50;58.50
27805;BME280;15183;51.350;11.102;2024-03-02T01:50:45;98961.34;;;10.48;58.56
27805;BME280;15183;51.350;11.102;2024-03-02T01:53:12;98963.16;;;10.42;58.57
27805;BME280;15183;51.350;11.102;2024-03-02T01:55:39;98964.00;;;10.48;58.53
27805;BME280;15183;51.350;11.102;2024-03-02T01:58:05;98960.81;;;10.46;58.30
27805;BME280;15183;51.350;11.102;2024-03-02T02:00:33;98946.59;;;10.35;58.45
27805;BME280;15183;51.350;11.102;2024-03-02T02:02:59;98945.81;;;10.35;58.49
27805;BME280;15183;51.350;11.102;2024-03-02T02:05:26;98965.06;;;10.47;58.61
27805;BME280;15183;51.350;11.102;2024-03-02T02:07:52;98936.06;;;10.18;58.70
27805;BME280;15183;51.350;11.102;2024-03-02T02:10:19;98946.88;;;10.34;58.19
27805;BME280;15183;51.350;11.102;2024-03-02T02:12:46;98958.09;;;10.41;58.48
27805;BME280;15183;51.350;11.102;2024-03-02T02:15:28;98960.88;;;10.34;58.67
27805;BME280;15183;51.350;11.102;2024-03-02T02:17:56;98951.59;;;10.32;58.49
27805;BME280;15183;51.350;11.102;2024-03-02T02:20:25;98963.03;;;10.37;58.42
27805;BME280;15183;51.350;11.102;2024-03-02T02:23:03;98960.34;;;10.32;58.70
27805;BME280;15183;51.350;11.102;2024-03-02T02:25:30;98954.75;;;10.28;58.94
27805;BME280;15183;51.350;11.102;2024-03-02T02:27:57;98964.03;;;10.31;58.78
27805;BME280;15183;51.350;11.102;2024-03-02T02:30:29;98947.03;;;10.27;58.65
27805;BME280;15183;51.350;11.102;2024-03-02T02:32:56;98929.94;;;10.12;58.99
27805;BME280;15183;51.350;11.102;2024-03-02T02:35:23;98964.44;;;10.40;58.77
27805;BME280;15183;51.350;11.102;2024-03-02T02:37:52;98983.53;;;10.42;59.11
27805;BME280;15183;51.350;11.102;2024-03-02T02:40:19;98946.00;;;10.28;58.59
27805;BME280;15183;51.350;11.102;2024-03-02T02:42:46;98946.47;;;10.25;59.06
27805;BME280;15183;51.350;11.102;2024-03-02T02:45:13;98964.59;;;10.33;58.69
27805;BME280;15183;51.350;11.102;2024-03-02T02:47:44;98947.63;;;10.12;58.70
27805;BME280;15183;51.350;11.102;2024-03-02T02:50:12;98945.41;;;10.04;59.03
27805;BME280;15183;51.350;11.102;2024-03-02T02:52:40;98948.00;;;9.98;58.81
27805;BME280;15183;51.350;11.102;2024-03-02T02:55:12;98961.28;;;10.04;59.05
27805;BME280;15183;51.350;11.102;2024-03-02T02:57:41;98950.72;;;10.04;59.32
27805;BME280;15183;51.350;11.102;2024-03-02T03:00:13;98954.53;;;10.13;59.32
27805;BME280;15183;51.350;11.102;2024-03-02T03:02:42;98945.81;;;10.12;59.36
27805;BME280;15183;51.350;11.102;2024-03-02T03:05:11;98954.19;;;10.26;59.25
27805;BME280;15183;51.350;11.102;2024-03-02T03:07:41;98942.78;;;10.26;59.10
27805;BME280;15183;51.350;11.102;2024-03-02T03:10:08;98947.97;;;10.38;59.17
27805;BME280;15183;51.350;11.102;2024-03-02T03:12:35;98929.94;;;10.35;59.02
27805;BME280;15183;51.350;11.102;2024-03-02T03:15:02;98949.22;;;10.52;58.83
27805;BME280;15183;51.350;11.102;2024-03-02T03:17:30;98937.91;;;10.57;58.88
27805;BME280;15183;51.350;11.102;2024-03-02T03:19:57;98936.59;;;10.60;58.83
27805;BME280;15183;51.350;11.102;2024-03-02T03:22:24;98940.09;;;10.65;58.76
27805;BME280;15183;51.350;11.102;2024-03-02T03:24:50;98948.91;;;10.71;58.75
27805;BME280;15183;51.350;11.102;2024-03-02T03:27:17;98958.50;;;10.77;58.56
27805;BME280;15183;51.350;11.102;2024-03-02T03:29:44;98940.41;;;10.69;58.69
27805;BME280;15183;51.350;11.102;2024-03-02T03:32:11;98956.41;;;10.79;58.62
27805;BME280;15183;51.350;11.102;2024-03-02T03:34:37;98966.50;;;10.82;58.53
27805;BME280;15183;51.350;11.102;2024-03-02T03:37:04;98946.81;;;10.73;58.71
27805;BME280;15183;51.350;11.102;2024-03-02T03:39:30;98938.81;;;10.68;58.57
27805;BME280;15183;51.350;11.102;2024-03-02T03:41:57;98937.56;;;10.53;58.57
27805;BME280;15183;51.350;11.102;2024-03-02T03:44:23;98902.41;;;10.36;58.51
27805;BME280;15183;51.350;11.102;2024-03-02T03:46:50;98961.63;;;10.69;58.64
27805;BME280;15183;51.350;11.102;2024-03-02T03:49:16;98944.06;;;10.63;58.58
27805;BME280;15183;51.350;11.102;2024-03-02T03:51:43;98941.41;;;10.63;58.62
27805;BME280;15183;51.350;11.102;2024-03-02T03:54:10;98953.34;;;10.65;58.06
27805;BME280;15183;51.350;11.102;2024-03-02T03:56:37;98960.00;;;10.68;58.29
27805;BME280;15183;51.350;11.102;2024-03-02T03:59:04;98960.41;;;10.60;58.32
27805;BME280;15183;51.350;11.102;2024-03-02T04:01:31;98967.91;;;10.63;58.25
27805;BME280;15183;51.350;11.102;2024-03-02T04:04:00;98967.91;;;10.63;58.32
27805;BME280;15183;51.350;11.102;2024-03-02T04:06:29;98963.88;;;10.60;58.47
27805;BME280;15183;51.350;11.102;2024-03-02T04:08:56;98958.41;;;10.67;58.30
27805;BME280;15183;51.350;11.102;2024-03-02T04:11:23;98940.53;;;10.57;58.48
27805;BME280;15183;51.350;11.102;2024-03-02T04:13:49;98939.00;;;10.61;58.56
27805;BME280;15183;51.350;11.102;2024-03-02T04:16:16;98961.06;;;10.67;58.58
27805;BME280;15183;51.350;11.102;2024-03-02T04:18:42;98958.16;;;10.68;58.87
27805;BME280;15183;51.350;11.102;2024-03-02T04:22:05;98950.47;;;10.67;58.80
27805;BME280;15183;51.350;11.102;2024-03-02T04:24:31;98949.91;;;10.65;59.32
27805;BME280;15183;51.350;11.102;2024-03-02T04:26:58;98937.94;;;10.62;59.00
27805;BME280;15183;51.350;11.102;2024-03-02T04:29:24;98934.31;;;10.68;59.46
27805;BME280;15183;51.350;11.102;2024-03-02T04:31:51;98911.66;;;10.55;59.30
27805;BME280;15183;51.350;11.102;2024-03-02T04:34:17;98943.13;;;10.74;59.20
27805;BME280;15183;51.350;11.102;2024-03-02T04:36:44;98943.72;;;10.81;59.45
27805;BME280;15183;51.350;11.102;2024-03-02T04:39:10;98928.81;;;10.75;59.19
27805;BME280;15183;51.350;11.102;2024-03-02T04:41:37;98931.75;;;10.79;59.29
27805;BME280;15183;51.350;11.102;2024-03-02T04:44:03;98936.31;;;10.83;59.05
27805;BME280;15183;51.350;11.102;2024-03-02T04:46:31;98946.19;;;10.88;59.10
27805;BME280;15183;51.350;11.102;2024-03-02T04:48:58;98942.72;;;10.88;59.08
27805;BME280;15183;51.350;11.102;2024-03-02T04:51:24;98939.81;;;10.89;59.09
27805;BME280;15183;51.350;11.102;2024-03-02T04:53:50;98951.53;;;10.93;59.02
27805;BME280;15183;51.350;11.102;2024-03-02T04:56:17;98952.81;;;10.91;59.05
27805;BME280;15183;51.350;11.102;2024-03-02T04:59:06;98965.56;;;10.94;59.18
27805;BME280;15183;51.350;11.102;2024-03-02T05:01:33;98957.63;;;10.94;58.96
27805;BME280;15183;51.350;11.102;2024-03-02T05:04:00;98949.84;;;10.82;59.18
27805;BME280;15183;51.350;11.102;2024-03-02T05:06:26;98956.91;;;10.76;59.41
27805;BME280;15183;51.350;11.102;2024-03-02T05:08:53;98950.00;;;10.75;59.39
27805;BME280;15183;51.350;11.102;2024-03-02T05:11:19;98982.47;;;10.88;59.41
27805;BME280;15183;51.350;11.102;2024-03-02T05:14:09;98970.16;;;10.76;59.35
27805;BME280;15183;51.350;11.102;2024-03-02T05:16:36;98965.09;;;10.75;59.36
27805;BME280;15183;51.350;11.102;2024-03-02T05:19:06;98967.50;;;10.76;59.46
27805;BME280;15183;51.350;11.102;2024-03-02T05:21:33;98986.94;;;10.82;59.25
27805;BME280;15183;51.350;11.102;2024-03-02T05:24:00;98980.31;;;10.84;59.48
27805;BME280;15183;51.350;11.102;2024-03-02T05:26:26;98990.41;;;10.88;59.58
27805;BME280;15183;51.350;11.102;2024-03-02T05:28:53;98978.72;;;10.83;59.39
27805;BME280;15183;51.350;11.102;2024-03-02T05:31:19;98934.03;;;10.42;59.59
27805;BME280;15183;51.350;11.102;2024-03-02T05:33:45;98976.63;;;10.85;59.32
27805;BME280;15183;51.350;11.102;2024-03-02T05:36:12;98969.91;;;10.78;59.57
27805;BME280;15183;51.350;11.102;2024-03-02T05:38:39;98974.16;;;10.79;59.40
27805;BME280;15183;51.350;11.102;2024-03-02T05:41:05;98992.00;;;10.89;59.36
27805;BME280;15183;51.350;11.102;2024-03-02T05:43:32;98966.78;;;10.81;59.35
27805;BME280;15183;51.350;11.102;2024-03-02T05:45:58;98988.63;;;10.93;59.02
27805;BME280;15183;51.350;11.102;2024-03-02T05:48:25;98983.34;;;10.93;59.28
27805;BME280;15183;51.350;11.102;2024-03-02T05:51:19;98977.13;;;10.82;59.18
27805;BME280;15183;51.350;11.102;2024-03-02T05:53:46;98965.38;;;10.73;59.31
27805;BME280;15183;51.350;11.102;2024-03-02T05:56:12;98987.41;;;10.79;59.25
27805;BME280;15183;51.350;11.102;2024-03-02T05:58:40;98983.97;;;10.78;59.37
27805;BME280;15183;51.350;11.102;2024-03-02T06:01:24;98938.53;;;10.42;59.71
27805;BME280;15183;51.350;11.102;2024-03-02T06:03:56;98977.25;;;10.70;59.69
27805;BME280;15183;51.350;11.102;2024-03-02T06:06:23;98993.09;;;10.65;59.09
27805;BME280;15183;51.350;11.102;2024-03-02T06:08:49;98973.25;;;10.68;59.32
27805;BME280;15183;51.350;11.102;2024-03-02T06:11:16;98991.59;;;10.75;59.38
27805;BME280;15183;51.350;11.102;2024-03-02T06:13:43;98984.69;;;10.74;59.13
27805;BME280;15183;51.350;11.102;2024-03-02T06:16:09;98976.13;;;10.66;59.20
27805;BME280;15183;51.350;11.102;2024-03-02T06:18:35;98950.16;;;10.41;59.53
27805;BME280;15183;51.350;11.102;2024-03-02T06:21:02;98992.97;;;10.77;59.03
27805;BME280;15183;51.350;11.102;2024-03-02T06:23:29;98977.50;;;10.69;59.09
27805;BME280;15183;51.350;11.102;2024-03-02T06:25:55;98996.09;;;10.74;59.38
27805;BME280;15183;51.350;11.102;2024-03-02T06:28:22;98992.59;;;10.68;59.74
27805;BME280;15183;51.350;11.102;2024-03-02T06:30:48;98948.41;;;10.30;59.75
27805;BME280;15183;51.350;11.102;2024-03-02T06:33:15;98966.38;;;10.45;59.65
27805;BME280;15183;51.350;11.102;2024-03-02T06:35:41;98997.78;;;10.58;59.97
27805;BME280;15183;51.350;11.102;2024-03-02T06:38:08;98942.47;;;10.22;60.21
27805;BME280;15183;51.350;11.102;2024-03-02T06:40:34;98982.06;;;10.51;59.56
27805;BME280;15183;51.350;11.102;2024-03-02T06:43:03;99011.13;;;10.68;59.92
27805;BME280;15183;51.350;11.102;2024-03-02T06:45:30;98984.69;;;10.51;59.92
27805;BME280;15183;51.350;11.102;2024-03-02T06:47:56;99000.31;;;10.70;60.14
27805;BME280;15183;51.350;11.102;2024-03-02T06:50:23;98945.19;;;10.45;59.79
27805;BME280;15183;51.350;11.102;2024-03-02T06:52:50;99014.63;;;10.96;59.57
27805;BME280;15183;51.350;11.102;2024-03-02T06:55:16;98999.50;;;10.97;59.24
27805;BME280;15183;51.350;11.102;2024-03-02T06:57:43;98996.13;;;11.02;59.31
27805;BME280;15183;51.350;11.102;2024-03-02T07:00:10;99003.44;;;11.17;59.33
27805;BME280;15183;51.350;11.102;2024-03-02T07:02:36;99021.31;;;11.26;59.31
27805;BME280;15183;51.350;11.102;2024-03-02T07:05:04;99003.50;;;11.22;59.42
27805;BME280;15183;51.350;11.102;2024-03-02T07:07:30;99009.16;;;11.31;59.26
27805;BME280;15183;51.350;11.102;2024-03-02T07:09:56;99016.41;;;11.40;59.51
27805;BME280;15183;51.350;11.102;2024-03-02T07:12:24;99009.00;;;11.42;59.31
27805;BME280;15183;51.350;11.102;2024-03-02T07:14:52;99014.44;;;11.58;59.50
27805;BME280;15183;51.350;11.102;2024-03-02T07:17:37;98983.59;;;11.52;59.33
27805;BME280;15183;51.350;11.102;2024-03-02T07:20:04;99013.81;;;11.83;59.48
27805;BME280;15183;51.350;11.102;2024-03-02T07:22:30;99023.75;;;11.98;59.51
27805;BME280;15183;51.350;11.102;2024-03-02T07:24:57;99020.03;;;11.99;59.67
27805;BME280;15183;51.350;11.102;2024-03-02T07:27:23;99017.97;;;12.01;59.94
27805;BME280;15183;51.350;11.102;2024-03-02T07:29:50;99013.22;;;12.09;59.92
27805;BME280;15183;51.350;11.102;2024-03-02T07:32:17;99012.53;;;12.24;59.76
27805;BME280;15183;51.350;11.102;2024-03-02T07:34:44;98968.34;;;12.07;59.82
27805;BME280;15183;51.350;11.102;2024-03-02T07:37:10;99036.63;;;12.65;59.77
27805;BME280;15183;51.350;11.102;2024-03-02T07:39:37;99018.31;;;12.69;59.55
27805;BME280;15183;51.350;11.102;2024-03-02T07:42:05;99021.03;;;12.84;59.42
27805;BME280;15183;51.350;11.102;2024-03-02T07:44:32;99041.84;;;13.08;59.22
27805;BME280;15183;51.350;11.102;2024-03-02T07:46:59;99049.84;;;13.18;59.17
27805;BME280;15183;51.350;11.102;2024-03-02T07:49:25;99047.78;;;13.31;59.02
27805;BME280;15183;51.350;11.102;2024-03-02T07:51:52;99048.31;;;13.38;59.10
27805;BME280;15183;51.350;11.102;2024-03-02T07:54:18;99042.44;;;13.36;58.17
27805;BME280;15183;51.350;11.102;2024-03-02T07:56:45;99062.19;;;13.45;58.23
27805;BME280;15183;51.350;11.102;2024-03-02T07:59:12;99032.88;;;13.35;58.28
27805;BME280;15183;51.350;11.102;2024-03-02T08:01:38;99052.34;;;13.46;58.05
27805;BME280;15183;51.350;11.102;2024-03-02T08:04:05;99057.94;;;13.50;57.98
27805;BME280;15183;51.350;11.102;2024-03-02T08:06:31;99063.00;;;13.51;58.30
27805;BME280;15183;51.350;11.102;2024-03-02T08:08:59;99046.22;;;13.45;58.01
27805;BME280;15183;51.350;11.102;2024-03-02T08:11:26;99059.81;;;13.54;57.93
27805;BME280;15183;51.350;11.102;2024-03-02T08:13:53;99040.84;;;13.40;57.86
27805;BME280;15183;51.350;11.102;2024-03-02T08:16:23;99018.22;;;13.17;57.67
27805;BME280;15183;51.350;11.102;2024-03-02T08:18:50;99024.34;;;13.28;57.87
27805;BME280;15183;51.350;11.102;2024-03-02T08:21:16;99057.41;;;13.53;58.24
27805;BME280;15183;51.350;11.102;2024-03-02T08:23:43;99049.69;;;13.51;57.96
27805;BME280;15183;51.350;11.102;2024-03-02T08:26:11;99055.53;;;13.53;57.81
27805;BME280;15183;51.350;11.102;2024-03-02T08:28:37;99017.94;;;13.24;57.97
27805;BME280;15183;51.350;11.102;2024-03-02T08:31:05;99065.13;;;13.70;58.19
27805;BME280;15183;51.350;11.102;2024-03-02T08:33:31;99064.06;;;13.71;58.01
27805;BME280;15183;51.350;11.102;2024-03-02T08:35:58;99057.69;;;13.72;58.06
27805;BME280;15183;51.350;11.102;2024-03-02T08:38:25;99070.19;;;13.87;58.03
27805;BME280;15183;51.350;11.102;2024-03-02T08:40:52;99070.72;;;13.94;58.18
27805;BME280;15183;51.350;11.102;2024-03-02T08:43:18;99039.06;;;13.87;57.89
27805;BME280;15183;51.350;11.102;2024-03-02T08:45:45;99079.78;;;14.09;57.97
27805;BME280;15183;51.350;11.102;2024-03-02T08:48:12;99052.06;;;13.99;57.88
27805;BME280;15183;51.350;11.102;2024-03-02T08:50:39;99074.16;;;14.15;57.81
27805;BME280;15183;51.350;11.102;2024-03-02T08:53:05;98998.06;;;13.68;57.92
27805;BME280;15183;51.350;11.102;2024-03-02T08:55:32;99040.09;;;13.97;57.76
27805;BME280;15183;51.350;11.102;2024-03-02T08:57:58;99064.88;;;14.08;57.80
27805;BME280;15183;51.350;11.102;2024-03-02T09:00:27;99069.41;;;14.23;57.63
27805;BME280;15183;51.350;11.102;2024-03-02T09:02:54;99072.06;;;14.23;57.82
27805;BME280;15183;51.350;11.102;2024-03-02T09:05:21;99070.16;;;14.28;57.92
27805;BME280;15183;51.350;11.102;2024-03-02T09:07:47;99064.06;;;14.28;57.67
27805;BME280;15183;51.350;11.102;2024-03-02T09:10:14;99068.81;;;14.36;57.74
27805;BME280;15183;51.350;11.102;2024-03-02T09:12:40;99080.28;;;14.42;57.98
27805;BME280;15183;51.350;11.102;2024-03-02T09:15:07;99071.22;;;14.43;57.81
27805;BME280;15183;51.350;11.102;2024-03-02T09:17:34;99086.38;;;14.53;58.18
27805;BME280;15183;51.350;11.102;2024-03-02T09:20:00;99082.91;;;14.57;57.64
27805;BME280;15183;51.350;11.102;2024-03-02T09:22:36;99059.75;;;14.42;57.48
27805;BME280;15183;51.350;11.102;2024-03-02T09:25:04;99074.88;;;14.62;57.69
27805;BME280;15183;51.350;11.102;2024-03-02T09:27:31;99076.25;;;14.60;57.76
27805;BME280;15183;51.350;11.102;2024-03-02T09:29:57;99061.84;;;14.51;57.71
27805;BME280;15183;51.350;11.102;2024-03-02T09:32:24;99062.63;;;14.61;57.42
27805;BME280;15183;51.350;11.102;2024-03-02T09:34:51;99037.38;;;14.38;57.43
27805;BME280;15183;51.350;11.102;2024-03-02T09:37:18;99057.56;;;14.65;57.42
27805;BME280;15183;51.350;11.102;2024-03-02T09:39:44;99068.47;;;14.79;57.56
27805;BME280;15183;51.350;11.102;2024-03-02T09:42:12;99064.16;;;14.88;57.39
27805;BME280;15183;51.350;11.102;2024-03-02T09:44:39;99070.56;;;14.93;57.45
27805;BME280;15183;51.350;11.102;2024-03-02T09:47:07;99071.56;;;15.02;57.18
27805;BME280;15183;51.350;11.102;2024-03-02T09:49:35;99065.13;;;15.08;57.00
27805;BME280;15183;51.350;11.102;2024-03-02T09:52:04;99035.63;;;14.89;57.38
27805;BME280;15183;51.350;11.102;2024-03-02T09:54:31;99081.00;;;15.34;57.23
27805;BME280;15183;51.350;11.102;2024-03-02T09:57:01;99082.34;;;15.37;56.84
27805;BME280;15183;51.350;11.102;2024-03-02T09:59:29;99086.28;;;15.44;56.77
27805;BME280;15183;51.350;11.102;2024-03-02T10:01:58;99081.19;;;15.48;56.71
27805;BME280;15183;51.350;11.102;2024-03-02T10:04:30;99089.63;;;15.66;56.76
27805;BME280;15183;51.350;11.102;2024-03-02T10:07:15;99073.53;;;15.76;56.53
27805;BME280;15183;51.350;11.102;2024-03-02T10:09:43;99078.72;;;15.97;56.52
27805;BME280;15183;51.350;11.102;2024-03-02T10:12:11;99028.81;;;15.87;56.08
27805;BME280;15183;51.350;11.102;2024-03-02T10:14:39;99069.56;;;16.38;55.82
27805;BME280;15183;51.350;11.102;2024-03-02T10:17:13;99077.00;;;16.65;55.58
27805;BME280;15183;51.350;11.102;2024-03-02T10:19:41;99082.28;;;16.95;55.83
27805;BME280;15183;51.350;11.102;2024-03-02T10:22:09;99078.38;;;17.11;55.52
27805;BME280;15183;51.350;11.102;2024-03-02T10:24:44;99078.06;;;17.32;55.15
27805;BME280;15183;51.350;11.102;2024-03-02T10:27:31;99090.94;;;17.49;55.13
27805;BME280;15183;51.350;11.102;2024-03-02T10:30:03;99081.31;;;17.67;54.77
27805;BME280;15183;51.350;11.102;2024-03-02T10:32:32;99078.09;;;17.84;54.49
27805;BME280;15183;51.350;11.102;2024-03-02T10:34:59;99012.91;;;17.56;54.22
27805;BME280;15183;51.350;11.102;2024-03-02T10:37:26;99048.75;;;17.93;53.63
27805;BME280;15183;51.350;11.102;2024-03-02T10:39:52;99034.25;;;17.94;53.77
27805;BME280;15183;51.350;11.102;2024-03-02T10:42:20;99049.22;;;18.14;53.62
27805;BME280;15183;51.350;11.102;2024-03-02T10:44:48;99071.91;;;18.50;52.78
27805;BME280;15183;51.350;11.102;2024-03-02T10:47:15;99081.03;;;18.63;52.40
27805;BME280;15183;51.350;11.102;2024-03-02T10:49:47;99086.19;;;18.73;52.26
27805;BME280;15183;51.350;11.102;2024-03-02T10:52:17;99069.81;;;18.75;52.57
27805;BME280;15183;51.350;11.102;2024-03-02T10:54:44;99054.59;;;18.70;52.17
27805;BME280;15183;51.350;11.102;2024-03-02T10:57:11;99055.03;;;18.77;52.11
27805;BME280;15183;51.350;11.102;2024-03-02T10:59:52;99069.00;;;18.88;51.82
27805;BME280;15183;51.350;11.102;2024-03-02T11:02:22;99087.50;;;18.90;51.53
27805;BME280;15183;51.350;11.102;2024-03-02T11:04:51;99062.88;;;18.74;51.86
27805;BME280;15183;51.350;11.102;2024-03-02T11:07:21;99075.69;;;18.77;51.75
27805;BME280;15183;51.350;11.102;2024-03-02T11:09:59;99067.22;;;18.56;51.13
27805;BME280;15183;51.350;11.102;2024-03-02T11:12:31;99068.53;;;18.44;51.19
27805;BME280;15183;51.350;11.102;2024-03-02T11:14:58;99036.09;;;18.13;51.05
27805;BME280;15183;51.350;11.102;2024-03-02T11:17:27;99052.38;;;18.02;51.00
27805;BME280;15183;51.350;11.102;2024-03-02T11:19:54;99025.94;;;17.62;51.06
27805;BME280;15183;51.350;11.102;2024-03-02T11:22:24;99043.81;;;17.67;51.27
27805;BME280;15183;51.350;11.102;2024-03-02T11:24:52;99006.38;;;17.29;51.15
27805;BME280;15183;51.350;11.102;2024-03-02T11:33:07;99044.19;;;17.41;51.66
27805;BME280;15183;51.350;11.102;2024-03-02T11:35:38;99050.19;;;17.52;51.03
27805;BME280;15183;51.350;11.102;2024-03-02T11:38:18;99043.63;;;17.44;51.19
27805;BME280;15183;51.350;11.102;2024-03-02T11:40:47;99048.03;;;17.54;51.14
27805;BME280;15183;51.350;11.102;2024-03-02T11:43:13;99029.66;;;17.47;51.29
27805;BME280;15183;51.350;11.102;2024-03-02T11:45:43;98986.97;;;17.18;50.94
27805;BME280;15183;51.350;11.102;2024-03-02T11:48:14;99019.81;;;17.43;51.00
27805;BME280;15183;51.350;11.102;2024-03-02T11:50:51;99030.09;;;17.55;51.07
27805;BME280;15183;51.350;11.102;2024-03-02T11:53:19;99041.94;;;17.68;51.34
27805;BME280;15183;51.350;11.102;2024-03-02T11:55:46;99010.06;;;17.66;51.12
27805;BME280;15183;51.350;11.102;2024-03-02T11:58:15;99028.91;;;17.94;51.00
27805;BME280;15183;51.350;11.102;2024-03-02T12:00:46;98980.50;;;17.71;50.96
27805;BME280;15183;51.350;11.102;2024-03-02T12:03:14;99039.13;;;18.25;50.79
27805;BME280;15183;51.350;11.102;2024-03-02T12:05:42;99029.78;;;18.36;50.46
27805;BME280;15183;51.350;11.102;2024-03-02T12:08:10;99022.72;;;18.41;49.91
27805;BME280;15183;51.350;11.102;2024-03-02T12:10:38;99013.59;;;18.42;50.11
27805;BME280;15183;51.350;11.102;2024-03-02T12:13:06;99023.81;;;18.54;49.74
27805;BME280;15183;51.350;11.102;2024-03-02T12:15:35;99029.06;;;18.59;50.06
27805;BME280;15183;51.350;11.102;2024-03-02T12:18:04;99024.53;;;18.59;49.83
27805;BME280;15183;51.350;11.102;2024-03-02T12:20:33;99010.91;;;18.56;49.80
27805;BME280;15183;51.350;11.102;2024-03-02T12:23:18;99015.97;;;18.57;50.29
27805;BME280;15183;51.350;11.102;2024-03-02T12:25:46;99002.47;;;18.48;49.89
27805;BME280;15183;51.350;11.102;2024-03-02T12:28:12;99020.16;;;18.63;49.98
27805;BME280;15183;51.350;11.102;2024-03-02T12:30:39;99023.31;;;18.65;49.74
27805;BME280;15183;51.350;11.102;2024-03-02T12:33:06;98996.19;;;18.53;49.67
27805;BME280;15183;51.350;11.102;2024-03-02T12:35:32;99012.69;;;18.60;49.84
27805;BME280;15183;51.350;11.102;2024-03-02T12:37:59;99015.56;;;18.64;49.71
27805;BME280;15183;51.350;11.102;2024-03-02T12:40:25;98986.53;;;18.52;49.51
27805;BME280;15183;51.350;11.102;2024-03-02T12:42:52;99007.34;;;18.60;49.52
27805;BME280;15183;51.350;11.102;2024-03-02T12:45:19;99006.13;;;18.66;48.81
27805;BME280;15183;51.350;11.102;2024-03-02T12:47:51;99011.28;;;18.77;48.95
27805;BME280;15183;51.350;11.102;2024-03-02T12:50:18;99006.88;;;18.81;49.15
27805;BME280;15183;51.350;11.102;2024-03-02T12:52:54;99009.94;;;18.88;49.00
27805;BME280;15183;51.350;11.102;2024-03-02T12:55:43;99018.00;;;18.88;49.50
27805;BME280;15183;51.350;11.102;2024-03-02T12:58:21;99001.78;;;18.93;49.08
27805;BME280;15183;51.350;11.102;2024-03-02T13:00:49;99004.09;;;19.00;48.89
27805;BME280;15183;51.350;11.102;2024-03-02T13:03:19;99008.84;;;19.03;48.82